Time;durP1;ratioP1;P1;durP2;ratioP2;P2;SDS_P1;SDS_P2;PMS_P1;PMS_P2;Temp;Humidity;BMP_temperature;BMP_pressure;BME280_temperature;BME280_humidity;BME280_pressure;Samples;Min_cycle;Max_cycle;Signal;HPM_P1;HPM_P2
2023/04/22 00:01:16;;;;;;;10.63;8.23;;;12.20;99.90;;;;;;5037915;28;20076;-70
2023/04/22 00:03:43;;;;;;;8.75;7.40;;;12.20;99.90;;;;;;5037816;28;20045;-70
2023/04/22 00:06:09;;;;;;;10.18;7.88;;;12.10;99.90;;;;;;5037719;28;20491;-70
2023/04/22 00:08:34;;;;;;;11.05;7.88;;;12.20;99.90;;;;;;5037725;28;20087;-70
2023/04/22 00:11:00;;;;;;;10.15;8.77;;;12.10;99.90;;;;;;5037727;28;20041;-70
2023/04/22 00:13:26;;;;;;;8.90;7.57;;;12.10;99.90;;;;;;5037737;28;20162;-70
2023/04/22 00:15:51;;;;;;;7.63;6.82;;;12.10;99.90;;;;;;5037831;28;20041;-71
2023/04/22 00:18:17;;;;;;;7.82;6.97;;;12.00;99.90;;;;;;5037639;28;20413;-71
2023/04/22 00:20:43;;;;;;;9.82;7.45;;;12.00;99.90;;;;;;5037873;28;20130;-71
2023/04/22 00:23:10;;;;;;;10.40;7.88;;;11.90;99.90;;;;;;5037725;28;20045;-71
2023/04/22 00:25:36;;;;;;;8.23;7.43;;;11.90;99.90;;;;;;5036391;28;20068;-71
2023/04/22 00:28:02;;;;;;;10.43;8.10;;;11.80;99.90;;;;;;5037380;28;20485;-71
2023/04/22 00:30:27;;;;;;;8.82;7.13;;;11.80;99.90;;;;;;5037300;28;20029;-71
2023/04/22 00:32:53;;;;;;;8.43;7.53;;;11.70;99.90;;;;;;5037620;28;20041;-71
2023/04/22 00:35:19;;;;;;;12.38;8.07;;;11.70;99.90;;;;;;5037271;28;20041;-71
2023/04/22 00:37:45;;;;;;;11.32;8.18;;;11.70;99.90;;;;;;5037438;28;20091;-70
2023/04/22 00:40:10;;;;;;;8.95;8.05;;;11.60;99.90;;;;;;5037422;28;20448;-70
2023/04/22 00:42:37;;;;;;;10.65;7.65;;;11.50;99.90;;;;;;5037386;28;20107;-70
2023/04/22 00:45:08;;;;;;;9.05;6.93;;;11.50;99.90;;;;;;5054965;28;20048;-70
2023/04/22 00:47:34;;;;;;;8.20;7.40;;;11.50;99.90;;;;;;5036956;28;20044;-70
2023/04/22 00:50:01;;;;;;;8.82;7.63;;;11.50;99.90;;;;;;5037242;28;20083;-70
2023/04/22 00:52:26;;;;;;;9.60;8.15;;;11.50;99.90;;;;;;5020607;28;20560;-70
2023/04/22 00:54:52;;;;;;;8.93;7.93;;;11.50;99.90;;;;;;5036895;28;20124;-70
2023/04/22 00:57:18;;;;;;;10.10;8.13;;;11.40;99.90;;;;;;5037058;28;20040;-70
2023/04/22 00:59:44;;;;;;;10.60;8.40;;;11.40;99.90;;;;;;5037101;28;20045;-70
2023/04/22 01:02:10;;;;;;;9.88;8.13;;;11.40;99.90;;;;;;5036800;28;20060;-71
2023/04/22 01:04:36;;;;;;;8.90;7.93;;;11.30;99.90;;;;;;5036726;28;20041;-71
2023/04/22 01:07:01;;;;;;;8.60;7.65;;;11.30;99.90;;;;;;5036590;28;20056;-70
2023/04/22 01:09:27;;;;;;;9.77;8.18;;;11.30;99.90;;;;;;5036894;28;20041;-70
2023/04/22 01:11:53;;;;;;;9.25;7.40;;;11.30;99.90;;;;;;5036599;28;20091;-70
2023/04/22 01:14:19;;;;;;;9.25;7.60;;;11.20;99.90;;;;;;5036491;28;20033;-70
2023/04/22 01:16:45;;;;;;;9.02;7.78;;;11.30;99.90;;;;;;5036723;28;20041;-70
2023/04/22 01:19:11;;;;;;;11.48;8.07;;;11.20;99.90;;;;;;5036714;28;20103;-71
2023/04/22 01:21:38;;;;;;;9.75;8.75;;;11.20;99.90;;;;;;5036376;28;20501;-71
2023/04/22 01:24:04;;;;;;;9.70;8.73;;;11.30;99.90;;;;;;5036306;28;20052;-71
2023/04/22 01:26:30;;;;;;;10.00;8.90;;;11.30;99.90;;;;;;5036123;28;20045;-71
2023/04/22 01:28:56;;;;;;;9.85;8.10;;;11.30;99.90;;;;;;5036202;28;20037;-71
2023/04/22 01:31:22;;;;;;;10.68;8.10;;;11.20;99.90;;;;;;5036209;28;20032;-71
2023/04/22 01:33:49;;;;;;;10.20;8.80;;;11.20;99.90;;;;;;5036149;28;20075;-71
2023/04/22 01:36:15;;;;;;;9.82;8.82;;;11.20;99.90;;;;;;5035636;28;20040;-70
2023/04/22 01:38:41;;;;;;;8.75;7.82;;;11.20;99.90;;;;;;5035989;28;20036;-71
2023/04/22 01:41:07;;;;;;;9.35;8.00;;;11.20;99.90;;;;;;5035967;28;20067;-71
2023/04/22 01:43:32;;;;;;;11.80;9.38;;;11.20;99.90;;;;;;5036002;28;20044;-71
2023/04/22 01:46:03;;;;;;;10.23;8.68;;;11.10;99.90;;;;;;5035693;28;20033;-70
2023/04/22 01:48:29;;;;;;;9.50;8.40;;;11.10;99.90;;;;;;5035847;28;20037;-71
2023/04/22 01:50:54;;;;;;;11.35;8.93;;;11.10;99.90;;;;;;5035874;28;20175;-71
2023/04/22 01:53:20;;;;;;;10.23;9.20;;;11.00;99.90;;;;;;5019329;28;20069;-71
2023/04/22 01:55:46;;;;;;;9.77;8.88;;;11.00;99.90;;;;;;5035717;28;20044;-71
2023/04/22 01:58:12;;;;;;;9.05;7.50;;;11.00;99.90;;;;;;5035786;28;20051;-70
2023/04/22 02:00:37;;;;;;;10.35;8.98;;;11.00;99.90;;;;;;5035970;28;20041;-71
2023/04/22 02:03:03;;;;;;;10.02;8.50;;;10.90;99.90;;;;;;5035678;28;20496;-70
2023/04/22 02:05:29;;;;;;;10.07;8.77;;;10.90;99.90;;;;;;5035630;28;20047;-70
2023/04/22 02:07:54;;;;;;;10.35;9.35;;;10.90;99.90;;;;;;5035394;28;20043;-70
2023/04/22 02:10:20;;;;;;;9.77;8.70;;;10.80;99.90;;;;;;5035566;28;20045;-71
2023/04/22 02:12:45;;;;;;;10.63;8.77;;;10.80;99.90;;;;;;5035544;28;20045;-71
2023/04/22 02:15:11;;;;;;;8.35;7.55;;;10.70;99.90;;;;;;5035492;28;20048;-70
2023/04/22 02:17:38;;;;;;;9.75;8.50;;;10.70;99.90;;;;;;5035388;28;20049;-70
2023/04/22 02:20:04;;;;;;;8.02;7.22;;;10.60;99.90;;;;;;5035616;28;20045;-70
2023/04/22 02:22:31;;;;;;;7.60;6.80;;;10.60;99.90;;;;;;5035366;28;20048;-71
2023/04/22 02:24:57;;;;;;;7.82;7.13;;;10.60;99.90;;;;;;5035506;28;20501;-71
2023/04/22 02:27:22;;;;;;;8.23;7.43;;;10.60;99.90;;;;;;5035204;28;20040;-70
2023/04/22 02:29:48;;;;;;;8.60;7.80;;;10.50;99.90;;;;;;5035249;28;20122;-71
2023/04/22 02:32:16;;;;;;;8.55;7.63;;;10.50;99.90;;;;;;5035517;28;20041;-71
2023/04/22 02:34:42;;;;;;;8.38;7.43;;;10.40;99.90;;;;;;5019101;28;20083;-71
2023/04/22 02:37:07;;;;;;;7.47;6.78;;;10.40;99.90;;;;;;5035123;28;20128;-70
2023/04/22 02:39:33;;;;;;;7.80;7.05;;;10.40;99.90;;;;;;5018680;28;20128;-70
2023/04/22 02:41:59;;;;;;;10.65;7.70;;;10.40;99.90;;;;;;5035137;28;20102;-70
2023/04/22 02:44:24;;;;;;;10.13;8.98;;;10.30;99.90;;;;;;5035145;28;20036;-70
2023/04/22 02:46:50;;;;;;;12.00;8.68;;;10.30;99.90;;;;;;5035023;28;20041;-71
2023/04/22 02:49:15;;;;;;;9.85;8.85;;;10.30;99.90;;;;;;5037648;28;20508;-71
2023/04/22 02:51:41;;;;;;;9.07;8.10;;;10.30;99.90;;;;;;5039255;28;20039;-71
2023/04/22 02:54:07;;;;;;;9.60;8.38;;;10.30;99.90;;;;;;5022697;28;20044;-71
2023/04/22 02:56:32;;;;;;;8.93;8.02;;;10.30;99.90;;;;;;5039083;28;20040;-71
2023/04/22 02:58:58;;;;;;;8.82;7.93;;;10.20;99.90;;;;;;5039111;28;20063;-71
2023/04/22 03:01:23;;;;;;;11.82;8.82;;;10.20;99.90;;;;;;5039315;28;20053;-71
2023/04/22 03:03:49;;;;;;;9.23;8.02;;;10.20;99.90;;;;;;5038966;28;20449;-71
2023/04/22 03:06:15;;;;;;;10.23;8.20;;;10.20;99.90;;;;;;5038747;28;20072;-71
2023/04/22 03:08:40;;;;;;;8.68;7.60;;;10.20;99.90;;;;;;5039200;28;20116;-70
2023/04/22 03:11:06;;;;;;;9.15;8.13;;;10.20;99.90;;;;;;5038840;28;20493;-71
2023/04/22 03:13:31;;;;;;;7.28;6.53;;;10.20;99.90;;;;;;5039047;28;20025;-71
2023/04/22 03:15:57;;;;;;;8.55;7.55;;;10.10;99.90;;;;;;5038784;28;20481;-70
2023/04/22 03:18:23;;;;;;;8.90;8.00;;;10.10;99.90;;;;;;5038965;28;20045;-70
2023/04/22 03:20:48;;;;;;;9.35;8.45;;;10.10;99.90;;;;;;5038689;28;20412;-70
2023/04/22 03:23:14;;;;;;;9.80;8.80;;;10.20;99.90;;;;;;5038614;28;20052;-70
2023/04/22 03:25:40;;;;;;;9.10;7.70;;;10.10;99.90;;;;;;5022183;28;20056;-71
2023/04/22 03:28:05;;;;;;;7.97;7.18;;;10.10;99.90;;;;;;5038514;28;20512;-71
2023/04/22 03:30:31;;;;;;;11.05;8.63;;;10.00;99.90;;;;;;5038574;28;20041;-71
2023/04/22 03:32:57;;;;;;;7.85;7.05;;;10.00;99.90;;;;;;5038489;28;20037;-71
2023/04/22 03:35:23;;;;;;;7.68;6.78;;;10.00;99.90;;;;;;5022173;28;20501;-71
2023/04/22 03:37:48;;;;;;;8.05;6.97;;;9.90;99.90;;;;;;5038310;28;20120;-71
2023/04/22 03:40:14;;;;;;;6.55;5.80;;;9.90;99.90;;;;;;5038259;28;20045;-71
2023/04/22 03:42:40;;;;;;;8.40;7.55;;;9.80;99.90;;;;;;5022124;28;20045;-70
2023/04/22 03:45:06;;;;;;;8.48;7.45;;;9.80;99.90;;;;;;5021862;28;20037;-70
2023/04/22 03:47:31;;;;;;;7.78;7.07;;;9.80;99.90;;;;;;5038094;28;20044;-70
2023/04/22 03:49:57;;;;;;;10.20;7.55;;;9.70;99.90;;;;;;5038103;28;20037;-70
2023/04/22 03:52:23;;;;;;;8.15;7.35;;;9.60;99.90;;;;;;5038321;28;20048;-70
2023/04/22 03:54:48;;;;;;;7.97;7.18;;;9.60;99.90;;;;;;5038111;28;20048;-70
2023/04/22 03:57:14;;;;;;;7.95;7.15;;;9.60;99.90;;;;;;5021753;28;20033;-70
2023/04/22 03:59:39;;;;;;;9.80;8.07;;;9.60;99.90;;;;;;5037678;28;20485;-70
2023/04/22 04:02:06;;;;;;;8.38;7.57;;;9.50;99.90;;;;;;5038240;28;20098;-70
2023/04/22 04:04:33;;;;;;;8.55;7.75;;;9.50;99.90;;;;;;5038169;28;20041;-70
2023/04/22 04:06:59;;;;;;;10.32;8.50;;;9.50;99.90;;;;;;5037877;28;20119;-70
2023/04/22 04:09:26;;;;;;;8.82;8.00;;;9.50;99.90;;;;;;5021320;28;20047;-71
2023/04/22 04:11:51;;;;;;;10.90;9.80;;;9.50;99.90;;;;;;5037677;28;20055;-70
2023/04/22 04:14:17;;;;;;;11.00;9.90;;;9.50;99.90;;;;;;5037741;28;20032;-70
2023/04/22 04:16:43;;;;;;;11.57;9.85;;;9.60;99.90;;;;;;5037581;28;20059;-70
2023/04/22 04:19:09;;;;;;;12.20;10.45;;;9.60;99.90;;;;;;5037840;28;20048;-71
2023/04/22 04:21:35;;;;;;;11.98;10.77;;;9.60;99.90;;;;;;5037558;28;20040;-71
2023/04/22 04:24:01;;;;;;;11.45;10.25;;;9.70;99.90;;;;;;5021018;28;20060;-71
2023/04/22 04:26:27;;;;;;;12.15;10.57;;;9.70;99.90;;;;;;5037617;28;20052;-70
2023/04/22 04:28:54;;;;;;;12.55;10.85;;;9.70;99.90;;;;;;5037372;28;20041;-70
2023/04/22 04:31:20;;;;;;;13.13;11.43;;;9.70;99.90;;;;;;5037363;28;20037;-70
2023/04/22 04:33:46;;;;;;;11.25;10.15;;;9.80;99.90;;;;;;5037312;28;20047;-70
2023/04/22 04:36:12;;;;;;;11.18;9.95;;;9.80;99.90;;;;;;5037291;28;20033;-70
2023/04/22 04:38:38;;;;;;;14.02;9.95;;;9.80;99.90;;;;;;5037500;28;20155;-70
2023/04/22 04:41:04;;;;;;;9.80;8.77;;;9.90;99.90;;;;;;5020680;28;20029;-70
2023/04/22 04:43:29;;;;;;;11.80;10.60;;;10.00;99.90;;;;;;5037350;28;20127;-70
2023/04/22 04:45:55;;;;;;;12.68;10.15;;;10.00;99.90;;;;;;5037238;28;20485;-70
2023/04/22 04:48:23;;;;;;;10.40;8.15;;;10.00;99.90;;;;;;5037081;28;20485;-70
2023/04/22 04:50:52;;;;;;;11.27;10.07;;;10.10;99.90;;;;;;5036995;28;20085;-70
2023/04/22 04:53:21;;;;;;;9.80;8.75;;;10.10;99.90;;;;;;5036958;28;20394;-70
2023/04/22 04:55:47;;;;;;;9.25;8.35;;;10.10;99.90;;;;;;5036778;28;20041;-70
2023/04/22 04:58:13;;;;;;;13.10;9.93;;;10.20;99.90;;;;;;5036871;28;20119;-70
2023/04/22 05:00:38;;;;;;;10.50;9.27;;;10.20;99.90;;;;;;5036866;28;20142;-70
2023/04/22 05:03:04;;;;;;;10.88;9.07;;;10.20;99.90;;;;;;5036795;28;20041;-70
2023/04/22 05:05:30;;;;;;;11.60;9.52;;;10.20;99.90;;;;;;5037005;28;20037;-70
2023/04/22 05:07:55;;;;;;;11.45;9.82;;;10.20;99.90;;;;;;5036598;28;20505;-71
2023/04/22 05:10:21;;;;;;;11.15;9.93;;;10.20;99.90;;;;;;5036443;28;20539;-71
2023/04/22 05:12:46;;;;;;;12.55;9.50;;;10.20;99.90;;;;;;5036019;28;20043;-71
2023/04/22 05:15:13;;;;;;;11.68;10.15;;;10.30;99.90;;;;;;5036574;28;20041;-71
2023/04/22 05:17:39;;;;;;;9.93;8.90;;;10.30;99.90;;;;;;5036402;28;20119;-70
2023/04/22 05:20:05;;;;;;;11.88;9.35;;;10.30;99.90;;;;;;5036487;28;20140;-71
2023/04/22 05:22:31;;;;;;;12.38;9.80;;;10.30;99.90;;;;;;5020177;28;20083;-71
2023/04/22 05:24:57;;;;;;;12.00;9.85;;;10.30;99.90;;;;;;5036556;28;20071;-71
2023/04/22 05:27:22;;;;;;;10.75;9.15;;;10.30;99.90;;;;;;5036262;28;20049;-71
2023/04/22 05:29:48;;;;;;;12.43;9.93;;;10.40;99.90;;;;;;5036306;28;20079;-71
2023/04/22 05:32:13;;;;;;;10.50;9.43;;;10.30;99.90;;;;;;5019730;28;20040;-71
2023/04/22 05:34:39;;;;;;;12.27;9.63;;;10.40;99.90;;;;;;5036509;28;20072;-71
2023/04/22 05:37:05;;;;;;;12.73;9.45;;;10.40;99.90;;;;;;5036036;28;20421;-71
2023/04/22 05:39:31;;;;;;;13.82;10.15;;;10.40;99.90;;;;;;5036005;28;20032;-71
2023/04/22 05:41:56;;;;;;;16.33;10.85;;;10.50;99.90;;;;;;5036148;28;20094;-70
2023/04/22 05:44:22;;;;;;;11.45;9.65;;;10.50;99.90;;;;;;5036082;28;20037;-70
2023/04/22 05:46:48;;;;;;;13.35;10.50;;;10.60;99.90;;;;;;5035704;28;20037;-70
2023/04/22 05:49:13;;;;;;;13.40;10.82;;;10.60;99.90;;;;;;5035975;28;20641;-70
2023/04/22 05:51:39;;;;;;;18.25;10.65;;;10.60;99.90;;;;;;5036183;28;20033;-70
2023/04/22 05:54:04;;;;;;;13.32;10.65;;;10.70;99.90;;;;;;5035877;28;20077;-70
2023/04/22 05:56:30;;;;;;;12.98;10.48;;;10.70;99.90;;;;;;5035979;28;20120;-69
2023/04/22 05:58:56;;;;;;;14.25;10.52;;;10.70;99.90;;;;;;5035981;28;20404;-69
2023/04/22 06:01:23;;;;;;;17.65;11.02;;;10.80;99.90;;;;;;5035676;28;20481;-70
2023/04/22 06:03:49;;;;;;;14.23;10.88;;;10.80;99.90;;;;;;5035927;28;20033;-70
2023/04/22 06:06:15;;;;;;;15.20;11.38;;;10.80;99.90;;;;;;5035487;28;20443;-69
2023/04/22 06:08:41;;;;;;;13.38;11.98;;;10.80;99.90;;;;;;5035640;28;20049;-69
2023/04/22 06:11:06;;;;;;;13.38;10.45;;;10.90;99.90;;;;;;5035574;28;20068;-69
2023/04/22 06:13:32;;;;;;;13.88;10.73;;;10.90;99.90;;;;;;5035571;28;20044;-71
2023/04/22 06:15:57;;;;;;;13.55;10.43;;;10.90;99.90;;;;;;5035737;28;20048;-71
2023/04/22 06:18:23;;;;;;;11.95;10.75;;;11.00;99.90;;;;;;5035677;28;20516;-71
2023/04/22 06:20:50;;;;;;;18.30;12.13;;;11.00;99.90;;;;;;5018999;28;20511;-71
2023/04/22 06:23:16;;;;;;;16.45;11.23;;;11.00;99.90;;;;;;5035298;28;20051;-71
2023/04/22 06:25:42;;;;;;;15.18;10.98;;;11.10;99.90;;;;;;5035543;28;20033;-71
2023/04/22 06:28:08;;;;;;;13.38;11.05;;;11.10;99.90;;;;;;5035223;28;20390;-71
2023/04/22 06:30:33;;;;;;;13.07;11.68;;;11.10;99.90;;;;;;5035589;28;20036;-71
2023/04/22 06:32:59;;;;;;;14.57;11.80;;;11.10;99.90;;;;;;5035696;28;20045;-71
2023/04/22 06:35:25;;;;;;;14.27;11.07;;;11.20;99.90;;;;;;5035245;28;20041;-71
2023/04/22 06:37:51;;;;;;;13.30;11.90;;;11.20;99.90;;;;;;5035380;28;20106;-71
2023/04/22 06:40:17;;;;;;;13.88;12.25;;;11.20;99.90;;;;;;5035113;28;20531;-71
2023/04/22 06:42:42;;;;;;;13.75;12.35;;;11.30;99.90;;;;;;5035089;28;20069;-71
2023/04/22 06:45:11;;;;;;;15.68;13.02;;;11.30;99.90;;;;;;5035137;28;20124;-71
2023/04/22 06:47:39;;;;;;;14.05;12.73;;;11.30;99.90;;;;;;5034945;28;20052;-71
2023/04/22 06:50:09;;;;;;;17.40;12.43;;;11.40;99.90;;;;;;5035053;28;20127;-71
2023/04/22 06:52:35;;;;;;;14.25;12.65;;;11.50;99.90;;;;;;5018869;28;20033;-71
2023/04/22 06:55:04;;;;;;;15.27;12.60;;;11.50;99.90;;;;;;5035036;28;20448;-71
2023/04/22 06:57:30;;;;;;;13.60;12.27;;;11.50;99.90;;;;;;5035173;28;20409;-71
2023/04/22 06:59:55;;;;;;;13.50;12.15;;;11.60;99.90;;;;;;5035235;28;20037;-71
2023/04/22 07:02:21;;;;;;;14.63;11.98;;;11.60;99.90;;;;;;5034994;28;20400;-71
2023/04/22 07:04:47;;;;;;;13.63;12.18;;;11.70;99.90;;;;;;5034985;28;20049;-71
2023/04/22 07:07:12;;;;;;;14.07;12.68;;;11.80;99.90;;;;;;5034765;28;20036;-71
2023/04/22 07:09:38;;;;;;;19.65;15.68;;;11.80;99.90;;;;;;5034840;28;20120;-71
2023/04/22 07:12:04;;;;;;;16.50;12.65;;;11.90;99.90;;;;;;5034932;28;20496;-71
2023/04/22 07:14:30;;;;;;;14.85;13.27;;;12.00;99.90;;;;;;5034886;28;20036;-71
2023/04/22 07:16:56;;;;;;;15.15;13.57;;;11.90;99.90;;;;;;5034791;28;20041;-71
2023/04/22 07:19:21;;;;;;;13.75;12.23;;;12.00;99.90;;;;;;5034861;28;20048;-71
2023/04/22 07:21:47;;;;;;;13.63;12.23;;;12.10;99.90;;;;;;5035031;28;20052;-71
2023/04/22 07:24:13;;;;;;;17.02;13.68;;;12.10;99.90;;;;;;5034805;28;20382;-71
2023/04/22 07:26:42;;;;;;;12.95;11.23;;;12.20;99.90;;;;;;5034587;28;20126;-71
2023/04/22 07:29:08;;;;;;;14.35;12.35;;;12.30;99.90;;;;;;5034929;28;20045;-71
2023/04/22 07:31:36;;;;;;;14.85;12.85;;;12.30;99.90;;;;;;5035026;28;20512;-71
2023/04/22 07:34:02;;;;;;;13.50;12.07;;;12.40;99.90;;;;;;5035389;28;20033;-71
2023/04/22 07:36:28;;;;;;;14.35;12.85;;;12.50;99.90;;;;;;5038410;28;20094;-71
2023/04/22 07:38:53;;;;;;;14.73;12.90;;;12.50;99.90;;;;;;5022139;28;20033;-71
2023/04/22 07:41:19;;;;;;;14.27;12.85;;;12.60;99.90;;;;;;5038641;28;20579;-71
2023/04/22 07:43:45;;;;;;;13.60;11.80;;;12.60;99.90;;;;;;5038329;28;20117;-71
2023/04/22 07:46:10;;;;;;;13.85;11.95;;;12.70;99.90;;;;;;5038386;28;20107;-71
2023/04/22 07:48:36;;;;;;;13.45;12.15;;;12.80;99.90;;;;;;5038115;28;20114;-71
2023/04/22 07:51:02;;;;;;;12.15;10.88;;;12.90;99.90;;;;;;5038473;28;20048;-71
2023/04/22 07:53:27;;;;;;;15.70;11.50;;;12.90;99.90;;;;;;5038129;28;20045;-71
2023/04/22 07:55:54;;;;;;;14.05;12.15;;;12.90;99.90;;;;;;5037987;28;20036;-71
2023/04/22 07:58:20;;;;;;;13.98;12.20;;;13.00;99.90;;;;;;5038291;28;20059;-71
2023/04/22 08:00:46;;;;;;;13.95;11.95;;;13.10;99.90;;;;;;5037924;28;20481;-71
2023/04/22 08:03:12;;;;;;;14.63;10.70;;;13.20;99.90;;;;;;5037965;28;20132;-71
2023/04/22 08:05:37;;;;;;;13.57;11.20;;;13.20;99.90;;;;;;5037822;28;20037;-71
2023/04/22 08:08:04;;;;;;;13.88;11.07;;;13.30;99.90;;;;;;5037708;28;20110;-71
2023/04/22 08:10:29;;;;;;;12.65;11.40;;;13.50;99.90;;;;;;5021344;28;20037;-71
2023/04/22 08:12:55;;;;;;;12.35;11.05;;;13.60;99.90;;;;;;5037750;28;20087;-71
2023/04/22 08:15:20;;;;;;;12.20;10.93;;;13.80;99.90;;;;;;5037699;28;20032;-71
2023/04/22 08:17:46;;;;;;;12.52;9.98;;;13.90;99.90;;;;;;5037678;28;20036;-71
2023/04/22 08:20:14;;;;;;;11.75;10.55;;;14.10;99.90;;;;;;5037673;28;20048;-71
2023/04/22 08:22:41;;;;;;;10.93;9.40;;;14.30;99.90;;;;;;5021180;28;20132;-71
2023/04/22 08:25:08;;;;;;;12.30;9.52;;;14.40;99.90;;;;;;5037799;28;20049;-71
2023/04/22 08:27:34;;;;;;;11.18;10.02;;;14.50;99.90;;;;;;5037364;28;20048;-71
2023/04/22 08:29:59;;;;;;;10.70;9.60;;;14.70;99.90;;;;;;5037375;28;20041;-71
2023/04/22 08:32:25;;;;;;;10.85;9.43;;;14.80;99.90;;;;;;5037389;28;20040;-71
2023/04/22 08:34:51;;;;;;;11.00;9.07;;;14.90;99.90;;;;;;5037307;28;20041;-71
2023/04/22 08:37:17;;;;;;;10.20;9.20;;;15.00;99.90;;;;;;5037278;28;20140;-71
2023/04/22 08:39:43;;;;;;;10.30;9.30;;;15.20;99.90;;;;;;5037256;28;20116;-71
2023/04/22 08:42:09;;;;;;;10.15;9.15;;;15.20;99.90;;;;;;5037222;28;20084;-71
2023/04/22 08:44:36;;;;;;;10.25;9.18;;;15.30;99.90;;;;;;5037203;28;20075;-71
2023/04/22 08:47:02;;;;;;;9.27;8.23;;;15.40;99.90;;;;;;5035947;28;20049;-71
2023/04/22 08:49:29;;;;;;;11.55;8.40;;;15.50;99.90;;;;;;5037317;28;20037;-71
2023/04/22 08:51:55;;;;;;;10.32;8.43;;;15.60;99.90;;;;;;5037318;28;20115;-71
2023/04/22 08:54:22;;;;;;;9.48;8.48;;;15.60;99.90;;;;;;5036935;28;20536;-71
2023/04/22 08:56:49;;;;;;;8.88;7.97;;;15.60;99.90;;;;;;5036779;28;20044;-71
2023/04/22 08:59:15;;;;;;;9.57;8.15;;;15.90;99.90;;;;;;5036834;28;20040;-71
2023/04/22 09:01:42;;;;;;;10.27;8.63;;;15.90;99.90;;;;;;5037134;28;20037;-71
2023/04/22 09:04:13;;;;;;;10.50;8.15;;;16.10;99.90;;;;;;5036784;28;20118;-71
2023/04/22 09:06:39;;;;;;;8.57;7.68;;;16.40;99.90;;;;;;5036868;28;20114;-71
2023/04/22 09:09:07;;;;;;;9.82;8.43;;;16.70;99.90;;;;;;5036717;28;20512;-71
2023/04/22 09:11:35;;;;;;;9.85;7.43;;;16.90;99.90;;;;;;5037022;28;20128;-71
2023/04/22 09:14:02;;;;;;;8.23;7.20;;;17.20;99.90;;;;;;5036608;28;20041;-71
2023/04/22 09:16:30;;;;;;;10.00;8.07;;;17.30;99.90;;;;;;5054626;28;20064;-71
2023/04/22 09:18:56;;;;;;;9.00;7.68;;;17.50;99.90;;;;;;5036537;28;20048;-71
2023/04/22 09:21:25;;;;;;;7.95;7.18;;;17.80;99.90;;;;;;5036424;28;20044;-71
2023/04/22 09:23:52;;;;;;;8.82;7.55;;;18.00;99.90;;;;;;5036629;28;20110;-71
2023/04/22 09:26:23;;;;;;;8.60;7.70;;;18.20;99.90;;;;;;5036312;28;20087;-71
2023/04/22 09:28:57;;;;;;;7.38;6.50;;;18.30;99.90;;;;;;5036624;28;20114;-71
2023/04/22 09:31:23;;;;;;;9.40;7.00;;;18.60;99.90;;;;;;5036310;28;20037;-71
2023/04/22 09:34:07;;;;;;;8.55;6.97;;;18.90;99.90;;;;;;5036480;28;20064;-71
2023/04/22 09:36:36;;;;;;;8.73;7.20;;;19.00;99.90;;;;;;5036171;28;20133;-71
2023/04/22 09:39:04;;;;;;;8.90;7.75;;;19.00;99.90;;;;;;5019845;28;20068;-71
2023/04/22 09:41:32;;;;;;;8.55;7.65;;;18.90;99.90;;;;;;5036052;28;20037;-71
2023/04/22 09:43:59;;;;;;;7.80;7.00;;;18.60;99.90;;;;;;5035995;28;20516;-71
2023/04/22 09:46:26;;;;;;;9.25;7.40;;;18.60;99.90;;;;;;5035953;28;20439;-71
2023/04/22 09:48:54;;;;;;;7.95;6.80;;;18.60;99.90;;;;;;5019599;28;20037;-71
2023/04/22 09:51:20;;;;;;;11.98;7.20;;;18.70;99.90;;;;;;5035891;28;20489;-71
2023/04/22 09:54:09;;;;;;;10.18;6.68;;;18.80;99.80;;;;;;5035839;28;20045;-71
2023/04/22 09:56:49;;;;;;;7.10;6.40;;;19.00;99.30;;;;;;5035774;28;20167;-71
2023/04/22 09:59:23;;;;;;;8.38;6.53;;;19.10;98.60;;;;;;5019410;28;20062;-71
2023/04/22 10:01:51;;;;;;;9.85;6.88;;;19.20;97.80;;;;;;5035990;28;20041;-71
2023/04/22 10:04:20;;;;;;;7.35;6.40;;;19.10;97.60;;;;;;5035676;28;20048;-71
2023/04/22 10:06:47;;;;;;;7.65;6.47;;;19.10;97.30;;;;;;5035505;28;20048;-71
2023/04/22 10:09:16;;;;;;;8.98;6.85;;;19.10;97.40;;;;;;5019153;28;20048;-71
2023/04/22 10:11:42;;;;;;;8.35;6.43;;;19.20;96.80;;;;;;5035584;28;20064;-71
2023/04/22 10:14:13;;;;;;;7.07;6.22;;;19.40;97.00;;;;;;5035486;28;20095;-70
2023/04/22 10:16:41;;;;;;;6.75;6.15;;;19.70;96.70;;;;;;5019095;28;20033;-69
2023/04/22 10:19:12;;;;;;;8.07;6.63;;;19.90;95.60;;;;;;5035494;28;20409;-70
2023/04/22 10:21:40;;;;;;;8.95;6.43;;;20.00;94.80;;;;;;5035338;28;20045;-70
2023/04/22 10:24:06;;;;;;;8.45;6.60;;;20.00;94.00;;;;;;5035638;28;20041;-71
2023/04/22 10:26:42;;;;;;;7.97;6.03;;;20.00;94.40;;;;;;5035175;28;20568;-71
2023/04/22 10:29:12;;;;;;;8.27;6.15;;;20.20;92.60;;;;;;5035313;28;20144;-71
2023/04/22 10:31:37;;;;;;;8.75;6.85;;;20.40;93.00;;;;;;5035545;28;20585;-71
2023/04/22 10:34:14;;;;;;;7.40;5.97;;;20.60;92.50;;;;;;5035243;28;20041;-71
2023/04/22 10:37:00;;;;;;;7.47;6.10;;;20.80;91.70;;;;;;5035128;28;20043;-71
2023/04/22 10:39:28;;;;;;;6.68;6.05;;;20.90;92.00;;;;;;5018802;28;20087;-71
2023/04/22 10:41:56;;;;;;;8.35;6.13;;;21.20;91.40;;;;;;5035118;28;20060;-71
2023/04/22 10:44:27;;;;;;;6.97;5.90;;;21.30;90.40;;;;;;5035175;28;20073;-71
2023/04/22 10:46:56;;;;;;;8.68;6.18;;;21.40;89.30;;;;;;5018583;28;20091;-71
2023/04/22 10:49:24;;;;;;;7.07;5.30;;;21.20;88.00;;;;;;5035068;28;20497;-71
2023/04/22 10:51:58;;;;;;;8.40;5.00;;;21.20;88.20;;;;;;5018624;28;20041;-71
2023/04/22 10:54:36;;;;;;;5.88;5.28;;;21.30;86.40;;;;;;5035272;28;20436;-70
2023/04/22 10:57:06;;;;;;;6.95;5.63;;;21.20;84.80;;;;;;5035021;28;20041;-70
2023/04/22 10:59:48;;;;;;;7.25;5.40;;;21.30;84.10;;;;;;5035022;28;20052;-70
2023/04/22 11:02:15;;;;;;;6.45;5.32;;;21.10;83.20;;;;;;5035008;28;20045;-70
2023/04/22 11:04:42;;;;;;;5.90;5.18;;;21.10;83.50;;;;;;5034973;28;20114;-69
2023/04/22 11:07:21;;;;;;;5.40;4.68;;;20.90;83.20;;;;;;5035059;28;20049;-69
2023/04/22 11:09:58;;;;;;;5.32;4.82;;;20.80;83.10;;;;;;5020477;28;20131;-71
2023/04/22 11:12:40;;;;;;;6.65;4.93;;;21.00;83.10;;;;;;5039188;28;20047;-71
2023/04/22 11:15:16;;;;;;;5.95;5.35;;;21.10;82.50;;;;;;5039481;28;20076;-71
2023/04/22 11:17:44;;;;;;;7.32;4.97;;;21.30;83.10;;;;;;5039017;28;20560;-70
2023/04/22 11:20:11;;;;;;;10.65;6.00;;;21.60;82.50;;;;;;5038761;28;20040;-70
2023/04/22 11:22:41;;;;;;;6.82;5.60;;;21.80;81.30;;;;;;5039016;28;20036;-70
2023/04/22 11:25:09;;;;;;;7.57;5.10;;;21.80;81.70;;;;;;5038906;28;20123;-70
2023/04/22 11:27:35;;;;;;;10.15;5.80;;;21.80;81.10;;;;;;5038628;28;20037;-70
2023/04/22 11:30:04;;;;;;;6.57;5.75;;;21.60;79.80;;;;;;5038825;28;20041;-70
2023/04/22 11:32:30;;;;;;;7.25;5.10;;;21.40;80.40;;;;;;5038770;28;20072;-70
2023/04/22 11:34:56;;;;;;;6.63;5.05;;;21.60;80.10;;;;;;5038712;28;20502;-70
2023/04/22 11:37:22;;;;;;;6.00;5.15;;;21.80;81.10;;;;;;5038318;28;20086;-70
2023/04/22 11:39:50;;;;;;;9.48;5.68;;;21.90;81.50;;;;;;5038328;28;20131;-70
2023/04/22 11:42:21;;;;;;;11.57;5.32;;;22.00;81.70;;;;;;5038643;28;20091;-70
2023/04/22 11:44:47;;;;;;;7.40;5.13;;;22.30;79.30;;;;;;5038364;28;20090;-70
2023/04/22 11:47:13;;;;;;;7.30;5.97;;;22.30;78.60;;;;;;5021588;28;20041;-70
2023/04/22 11:49:38;;;;;;;6.60;5.53;;;21.90;78.20;;;;;;5038186;28;20066;-70
2023/04/22 11:52:04;;;;;;;7.20;5.82;;;21.70;79.20;;;;;;5038398;28;20039;-70
2023/04/22 11:54:35;;;;;;;6.90;6.10;;;21.70;79.60;;;;;;5038115;28;20489;-70
2023/04/22 11:57:07;;;;;;;7.63;6.13;;;21.70;78.70;;;;;;5037964;28;20073;-70
2023/04/22 11:59:33;;;;;;;8.50;5.70;;;21.70;78.70;;;;;;5038011;28;20088;-70
2023/04/22 12:01:59;;;;;;;7.30;5.50;;;21.60;79.00;;;;;;5038134;28;20040;-70
2023/04/22 12:04:24;;;;;;;7.15;6.10;;;21.50;79.00;;;;;;5037961;28;20424;-70
2023/04/22 12:06:53;;;;;;;7.72;6.10;;;21.20;78.20;;;;;;5038016;28;20041;-70
2023/04/22 12:09:23;;;;;;;8.77;5.93;;;21.00;79.40;;;;;;5037882;28;20033;-70
2023/04/22 12:11:50;;;;;;;6.88;6.13;;;20.80;80.40;;;;;;5037775;28;20048;-70
2023/04/22 12:14:16;;;;;;;8.68;6.45;;;20.70;80.30;;;;;;5037754;28;20048;-70
2023/04/22 12:16:42;;;;;;;7.20;6.40;;;20.50;80.90;;;;;;5037770;28;20040;-70
2023/04/22 12:19:08;;;;;;;7.18;6.47;;;20.60;81.60;;;;;;5037910;28;20025;-70
2023/04/22 12:21:34;;;;;;;6.97;6.28;;;20.70;81.30;;;;;;5037494;28;20574;-70
2023/04/22 12:24:05;;;;;;;8.57;6.60;;;20.90;81.40;;;;;;5037608;28;20033;-70
2023/04/22 12:26:30;;;;;;;8.77;5.72;;;21.00;81.20;;;;;;5037373;28;20052;-70
2023/04/22 12:28:58;;;;;;;11.95;5.70;;;21.20;81.40;;;;;;5037538;28;20041;-70
2023/04/22 12:31:24;;;;;;;9.07;6.25;;;21.60;82.10;;;;;;5037425;28;20052;-70
2023/04/22 12:33:50;;;;;;;6.20;5.35;;;21.70;79.50;;;;;;5037361;28;20033;-70
2023/04/22 12:36:17;;;;;;;6.60;5.80;;;21.80;79.70;;;;;;5037295;28;20162;-70
2023/04/22 12:38:42;;;;;;;6.60;5.85;;;21.90;79.30;;;;;;5037562;28;20110;-70